Time;durP1;ratioP1;P1;durP2;ratioP2;P2;SDS_P1;SDS_P2;PMS_P1;PMS_P2;Temp;Humidity;BMP_temperature;BMP_pressure;BME280_temperature;BME280_humidity;BME280_pressure;Samples;Min_cycle;Max_cycle;Signal;HPM_P1;HPM_P2
2022/09/03 00:00:40;;;;;;;9.25;2.53;;;;;;;18.56;45.30;100973.72;5259337;28;20405;-71
2022/09/03 00:03:36;;;;;;;5.18;2.45;;;;;;;18.76;44.56;100967.94;5266434;28;20039;-71
2022/09/03 00:06:27;;;;;;;5.35;2.70;;;;;;;18.69;44.77;100965.94;5265885;28;20105;-71
2022/09/03 00:09:12;;;;;;;5.25;2.35;;;;;;;18.53;45.44;100967.94;5267043;28;20485;-71
2022/09/03 00:12:12;;;;;;;7.00;2.50;;;;;;;18.74;44.34;100961.97;5268027;28;20178;-71
2022/09/03 00:14:59;;;;;;;9.15;2.35;;;;;;;18.51;45.07;100961.97;5265122;28;20024;-71
2022/09/03 00:17:46;;;;;;;5.28;2.50;;;;;;;18.60;44.93;100963.53;5259877;28;20127;-71
2022/09/03 00:20:27;;;;;;;3.97;2.30;;;;;;;18.37;45.46;100950.31;5262760;28;20032;-71
2022/09/03 00:23:03;;;;;;;7.22;2.10;;;;;;;18.25;46.11;100965.81;5262783;28;20027;-71
2022/09/03 00:25:40;;;;;;;5.90;2.47;;;;;;;18.31;45.99;100964.31;5267769;28;20098;-71
2022/09/03 00:28:18;;;;;;;7.32;2.20;;;;;;;18.19;46.32;100971.84;5260486;28;20159;-71
2022/09/03 00:30:58;;;;;;;6.60;2.38;;;;;;;18.12;46.66;100962.94;5263441;28;20036;-71
2022/09/03 00:33:31;;;;;;;4.30;2.42;;;;;;;18.08;46.61;100959.00;5265983;28;20104;-71
2022/09/03 00:36:11;;;;;;;4.78;1.92;;;;;;;18.13;46.66;100964.59;5264684;28;20028;-70
2022/09/03 00:38:42;;;;;;;5.30;2.25;;;;;;;17.95;47.27;100962.22;5261131;28;20029;-71
2022/09/03 00:41:30;;;;;;;6.45;2.53;;;;;;;18.17;46.43;100961.41;5266398;28;20468;-71
2022/09/03 00:44:36;;;;;;;5.32;2.28;;;;;;;18.29;46.03;100963.63;5258334;28;20071;-71
2022/09/03 00:47:17;;;;;;;5.47;2.50;;;;;;;18.02;47.02;100960.50;5257504;28;20090;-70
2022/09/03 00:50:21;;;;;;;6.30;2.40;;;;;;;18.27;46.30;100965.66;5259559;28;20021;-70
2022/09/03 00:53:03;;;;;;;7.20;2.88;;;;;;;17.95;47.53;100964.88;5257786;28;20044;-70
2022/09/03 00:55:57;;;;;;;6.30;2.38;;;;;;;18.09;46.62;100958.00;5262988;28;20156;-71
2022/09/03 00:58:43;;;;;;;5.38;2.65;;;;;;;17.84;48.02;100958.16;5266093;28;20041;-71
2022/09/03 01:01:45;;;;;;;5.28;2.53;;;;;;;17.93;47.33;100954.44;5266032;28;20032;-71
2022/09/03 01:05:07;;;;;;;6.63;2.80;;;;;;;17.99;47.41;100958.22;5256316;28;20101;-71
2022/09/03 01:07:53;;;;;;;5.65;2.50;;;;;;;17.69;48.11;100958.03;5231023;28;20045;-71
2022/09/03 01:10:59;;;;;;;6.20;3.13;;;;;;;17.84;47.63;100955.50;5263179;28;20036;-71
2022/09/03 01:13:40;;;;;;;6.63;2.75;;;;;;;17.64;48.37;100952.41;5260729;28;20036;-71
2022/09/03 01:16:23;;;;;;;6.63;2.55;;;;;;;17.66;48.45;100950.44;5271562;28;20029;-71
2022/09/03 01:19:07;;;;;;;5.93;2.83;;;;;;;17.68;48.34;100951.06;5258569;28;20113;-71
2022/09/03 01:21:57;;;;;;;5.13;2.70;;;;;;;17.70;48.67;100941.13;5266535;28;20032;-71
2022/09/03 01:24:58;;;;;;;6.18;2.60;;;;;;;17.72;48.38;100959.50;5260761;28;20017;-71
2022/09/03 01:27:45;;;;;;;4.97;2.90;;;;;;;17.46;49.22;100949.19;5263926;28;20037;-71
2022/09/03 01:30:19;;;;;;;6.88;3.22;;;;;;;17.39;49.56;100953.56;5264055;28;20060;-71
2022/09/03 01:33:10;;;;;;;5.05;2.80;;;;;;;17.63;48.57;100952.59;5260210;28;20021;-71
2022/09/03 01:35:53;;;;;;;5.75;3.30;;;;;;;17.46;49.05;100957.13;5262857;28;20373;-71
2022/09/03 01:38:41;;;;;;;7.35;3.08;;;;;;;17.33;49.68;100956.88;5269176;28;20078;-71
2022/09/03 01:45:07;;;;;;;4.65;3.00;;;;;;;17.52;48.44;100946.69;5232271;28;20045;-71
2022/09/03 01:47:48;;;;;;;8.25;3.40;;;;;;;17.29;49.48;100944.97;5263836;28;20036;-71
2022/09/03 01:50:36;;;;;;;6.40;3.60;;;;;;;17.34;49.72;100953.22;5258250;28;20033;-71
2022/09/03 01:53:16;;;;;;;5.90;3.60;;;;;;;17.34;49.15;100946.09;5279093;28;20032;-71
2022/09/03 01:56:21;;;;;;;8.48;3.58;;;;;;;17.39;48.98;100949.06;5263038;28;20032;-71
2022/09/03 01:59:30;;;;;;;5.38;3.22;;;;;;;17.17;50.19;100963.88;5275822;22;20977;-66
2022/09/03 02:02:06;;;;;;;6.78;3.20;;;;;;;17.09;50.42;100963.91;5240593;28;20501;-66
2022/09/03 02:04:37;;;;;;;6.93;3.25;;;;;;;16.91;51.13;100958.00;5268829;28;20021;-70
2022/09/03 02:07:09;;;;;;;6.32;3.60;;;;;;;16.92;51.77;100964.94;5258607;28;20378;-70
2022/09/03 02:09:40;;;;;;;8.32;3.95;;;;;;;16.92;51.76;100952.53;5261193;28;20469;-69
2022/09/03 02:12:15;;;;;;;8.80;3.83;;;;;;;17.05;51.35;100946.72;5261253;28;20563;-70
2022/09/03 02:14:47;;;;;;;6.78;3.92;;;;;;;16.92;51.04;100954.34;5269183;28;20017;-70
2022/09/03 02:17:18;;;;;;;5.45;3.58;;;;;;;16.86;51.21;100950.56;5265224;28;20028;-70
2022/09/03 02:19:49;;;;;;;7.95;4.30;;;;;;;16.83;51.43;100945.59;5260711;28;20037;-69
2022/09/03 02:22:21;;;;;;;8.68;4.05;;;;;;;16.88;51.31;100953.03;5265867;28;20032;-69
2022/09/03 02:24:52;;;;;;;7.00;3.83;;;;;;;16.78;51.84;100950.56;5265677;28;20017;-69
2022/09/03 02:27:23;;;;;;;9.13;4.13;;;;;;;16.84;51.17;100944.59;5260658;28;20033;-69
2022/09/03 02:29:57;;;;;;;6.72;3.95;;;;;;;16.83;51.38;100950.91;5260560;28;20524;-70
2022/09/03 02:32:28;;;;;;;6.55;4.10;;;;;;;16.88;51.49;100956.50;5260964;28;20044;-66
2022/09/03 02:34:59;;;;;;;8.48;4.05;;;;;;;16.86;51.35;100944.41;5267855;28;20025;-70
2022/09/03 02:37:30;;;;;;;6.45;3.92;;;;;;;16.79;51.35;100952.22;5262795;28;20023;-70
2022/09/03 02:40:07;;;;;;;7.97;4.22;;;;;;;16.74;51.42;100959.81;5263789;28;20032;-68
2022/09/03 02:42:38;;;;;;;8.30;4.15;;;;;;;16.72;51.71;100943.28;5262536;28;20032;-69
2022/09/03 02:45:23;;;;;;;7.90;4.45;;;;;;;16.87;51.41;100946.09;5262226;28;20028;-69
2022/09/03 02:47:57;;;;;;;12.98;4.68;;;;;;;16.67;52.01;100943.78;5262188;28;20063;-68
2022/09/03 02:50:28;;;;;;;10.00;4.05;;;;;;;16.65;51.90;100942.28;5261085;28;20032;-66
2022/09/03 02:53:00;;;;;;;6.30;4.20;;;;;;;16.70;51.50;100954.00;5268421;28;20052;-67
2022/09/03 02:55:31;;;;;;;8.88;4.40;;;;;;;16.64;51.96;100948.59;5267143;28;20024;-66
2022/09/03 02:58:05;;;;;;;8.18;4.60;;;;;;;16.65;52.10;100951.06;5265219;28;20029;-66
2022/09/03 03:00:37;;;;;;;8.52;4.38;;;;;;;16.70;52.03;100935.50;5269595;28;20044;-67
2022/09/03 03:03:08;;;;;;;6.75;4.25;;;;;;;16.59;52.17;100937.66;5266014;28;20017;-67
2022/09/03 03:05:44;;;;;;;8.13;5.13;;;;;;;16.73;51.86;100951.06;5258413;28;20548;-70
2022/09/03 03:08:19;;;;;;;6.45;4.10;;;;;;;16.62;51.70;100956.66;5269562;28;20263;-70
2022/09/03 03:10:52;;;;;;;8.68;4.68;;;;;;;16.56;52.43;100956.53;5261557;28;20025;-67
2022/09/03 03:13:28;;;;;;;7.63;4.07;;;;;;;16.70;52.35;100955.84;5266696;28;20024;-67
2022/09/03 03:16:02;;;;;;;8.13;4.55;;;;;;;16.58;52.93;100960.63;5268250;28;20036;-67
2022/09/03 03:18:33;;;;;;;7.53;4.05;;;;;;;16.53;52.87;100953.22;5267164;28;20103;-67
2022/09/03 03:21:10;;;;;;;7.47;4.10;;;;;;;16.60;52.57;100950.75;5261888;28;20032;-68
2022/09/03 03:23:42;;;;;;;7.05;4.57;;;;;;;16.43;52.84;100944.63;5261845;28;20021;-67
2022/09/03 03:26:17;;;;;;;8.00;4.43;;;;;;;16.53;52.86;100949.75;5266535;28;20082;-68
2022/09/03 03:28:55;;;;;;;6.93;4.40;;;;;;;16.49;53.28;100948.44;5269288;28;20032;-68
2022/09/03 03:31:27;;;;;;;7.82;4.75;;;;;;;16.45;52.44;100953.22;5264459;28;20056;-69
2022/09/03 03:34:01;;;;;;;8.88;4.75;;;;;;;16.43;52.94;100949.06;5268658;28;20052;-68
2022/09/03 03:36:33;;;;;;;9.45;4.35;;;;;;;16.48;52.45;100952.06;5266159;28;20060;-67
2022/09/03 03:39:04;;;;;;;8.05;4.63;;;;;;;16.39;52.93;100953.06;5259916;28;20063;-67
2022/09/03 03:41:36;;;;;;;10.23;4.43;;;;;;;16.36;52.99;100956.03;5270810;28;20440;-68
2022/09/03 03:44:08;;;;;;;10.40;4.43;;;;;;;16.39;53.08;100953.06;5263313;28;20225;-68
2022/09/03 03:46:40;;;;;;;7.43;3.97;;;;;;;16.37;52.85;100939.19;5266669;28;20094;-68
2022/09/03 03:49:11;;;;;;;9.13;4.40;;;;;;;16.36;53.06;100946.25;5264998;28;20039;-68
2022/09/03 03:51:42;;;;;;;10.38;4.38;;;;;;;16.41;52.77;100946.63;5265661;28;20028;-68
2022/09/03 03:54:14;;;;;;;10.07;4.20;;;;;;;16.36;52.85;100945.44;5265873;28;20095;-68
2022/09/03 03:56:45;;;;;;;7.95;3.90;;;;;;;16.39;52.98;100963.63;5268231;28;20781;-68
2022/09/03 03:59:16;;;;;;;8.03;4.27;;;;;;;16.32;53.62;100954.69;5265983;28;20053;-68
2022/09/03 04:01:49;;;;;;;9.43;4.35;;;;;;;16.29;53.39;100955.88;5257357;28;20305;-68
2022/09/03 04:04:20;;;;;;;5.80;3.78;;;;;;;16.31;53.03;100953.88;5264858;28;20299;-68
2022/09/03 04:06:52;;;;;;;5.88;3.97;;;;;;;16.24;54.01;100945.75;5268974;28;20033;-68
2022/09/03 04:09:23;;;;;;;14.65;4.47;;;;;;;16.26;53.73;100943.78;5267320;28;20037;-67
2022/09/03 04:11:56;;;;;;;9.13;4.47;;;;;;;16.22;53.53;100942.47;5265961;28;20029;-69
2022/09/03 04:14:27;;;;;;;;;;;;;;;16.89;50.70;100944.09;5266821;28;20028;-68
2022/09/03 04:16:59;;;;;;;7.27;4.20;;;;;;;16.25;54.27;100944.78;5266409;28;19919;-68
2022/09/03 04:19:30;;;;;;;9.02;4.03;;;;;;;16.23;53.94;100938.00;5264001;28;20952;-67
2022/09/03 04:22:02;;;;;;;9.60;4.03;;;;;;;16.16;54.28;100940.47;5263848;28;20035;-67
2022/09/03 04:24:34;;;;;;;7.18;4.13;;;;;;;16.16;54.14;100937.84;5264154;28;20021;-69
2022/09/03 04:27:05;;;;;;;7.00;3.80;;;;;;;16.17;54.15;100941.31;5265524;28;20031;-68
2022/09/03 04:29:37;;;;;;;8.13;3.40;;;;;;;16.21;53.77;100946.13;5264287;28;20029;-68
2022/09/03 04:34:58;;;;;;;7.40;3.20;;;;;;;16.12;54.37;100936.50;5267036;28;20041;-68
2022/09/03 04:37:29;;;;;;;6.13;3.70;;;;;;;16.14;54.05;100938.97;5267557;28;20492;-68
2022/09/03 04:40:01;;;;;;;7.38;3.70;;;;;;;16.11;54.33;100934.88;5266116;28;20051;-68
2022/09/03 04:42:32;;;;;;;7.90;3.78;;;;;;;16.11;54.16;100948.09;5269445;28;20040;-68
2022/09/03 04:45:04;;;;;;;9.27;3.95;;;;;;;16.09;54.69;100934.19;5266544;28;20021;-68
2022/09/03 04:47:36;;;;;;;6.85;3.67;;;;;;;16.04;54.93;100939.16;5268065;28;20038;-68
2022/09/03 04:50:08;;;;;;;5.75;3.60;;;;;;;15.97;55.14;100936.31;5265076;28;20614;-69
2022/09/03 04:52:39;;;;;;;8.55;3.97;;;;;;;15.98;55.23;100945.09;5263906;28;20052;-67
2022/09/03 04:55:10;;;;;;;8.23;4.00;;;;;;;15.97;55.49;100946.06;5262580;28;20379;-69
2022/09/03 04:57:43;;;;;;;6.72;4.18;;;;;;;15.93;56.18;100942.09;5266366;28;20497;-68
2022/09/03 05:00:16;;;;;;;7.20;4.23;;;;;;;16.00;55.58;100948.41;5268587;28;20500;-68
2022/09/03 05:02:50;;;;;;;7.10;4.15;;;;;;;16.03;56.18;100943.63;5265508;28;20060;-67
2022/09/03 05:05:21;;;;;;;8.38;4.35;;;;;;;15.99;55.57;100946.75;5265644;28;20032;-68
2022/09/03 05:07:57;;;;;;;7.50;4.40;;;;;;;16.10;55.44;100942.94;5265722;28;20390;-68
2022/09/03 05:10:29;;;;;;;7.57;3.95;;;;;;;16.02;55.28;100943.75;5264501;28;20106;-68
2022/09/03 05:13:03;;;;;;;9.40;4.57;;;;;;;16.04;55.42;100939.97;5261788;28;20082;-68
2022/09/03 05:15:35;;;;;;;8.48;4.40;;;;;;;16.03;55.63;100942.78;5266576;28;20033;-68
2022/09/03 05:18:06;;;;;;;9.27;4.50;;;;;;;15.97;55.82;100943.44;5263882;28;20028;-68
2022/09/03 05:20:38;;;;;;;9.85;4.60;;;;;;;15.96;56.40;100939.97;5265926;28;20389;-67
2022/09/03 05:23:09;;;;;;;10.15;4.68;;;;;;;16.03;55.86;100943.63;5258883;28;20021;-68
2022/09/03 05:25:40;;;;;;;11.32;4.63;;;;;;;16.02;56.70;100939.34;5263448;28;20028;-67
2022/09/03 05:28:12;;;;;;;9.17;4.37;;;;;;;16.10;56.06;100941.16;5262301;28;20029;-69
2022/09/03 05:30:43;;;;;;;9.15;4.75;;;;;;;16.08;56.92;100940.47;5263393;28;20283;-67
2022/09/03 05:33:15;;;;;;;10.68;5.30;;;;;;;16.04;56.52;100939.16;5266741;28;20675;-67
2022/09/03 05:35:46;;;;;;;9.13;4.65;;;;;;;16.02;56.36;100936.69;5260943;28;20066;-68
2022/09/03 05:38:18;;;;;;;7.43;4.18;;;;;;;16.07;56.89;100938.00;5265006;28;20508;-68
2022/09/03 05:40:49;;;;;;;9.13;4.43;;;;;;;16.12;56.83;100936.50;5258110;28;20438;-68
2022/09/03 05:43:20;;;;;;;10.70;4.85;;;;;;;16.11;56.82;100942.81;5263077;28;20025;-68
2022/09/03 05:45:59;;;;;;;9.35;4.55;;;;;;;16.24;56.19;100945.75;5261435;28;20060;-68
2022/09/03 05:48:33;;;;;;;12.40;4.85;;;;;;;16.26;56.25;100948.25;5259942;28;20129;-68
2022/09/03 05:51:09;;;;;;;10.20;4.88;;;;;;;16.32;56.44;100941.47;5262712;28;20031;-68
2022/09/03 05:53:43;;;;;;;9.35;4.88;;;;;;;16.35;55.60;100947.25;5262228;28;20021;-68
2022/09/03 05:56:19;;;;;;;14.65;6.07;;;;;;;16.49;56.02;100949.25;5264867;28;20094;-69
2022/09/03 05:58:53;;;;;;;9.40;4.50;;;;;;;16.47;55.77;100942.47;5262190;28;20041;-68
2022/09/03 06:01:33;;;;;;;9.98;5.05;;;;;;;16.57;56.22;100939.66;5260392;28;20501;-68
2022/09/03 06:04:07;;;;;;;10.55;5.07;;;;;;;16.57;56.25;100943.13;5256687;28;20035;-67
2022/09/03 06:06:40;;;;;;;10.88;4.85;;;;;;;16.61;55.87;100936.50;5265430;28;20036;-69
2022/09/03 06:09:18;;;;;;;8.45;4.45;;;;;;;16.81;54.77;100942.28;5262550;28;20119;-67
2022/09/03 06:11:50;;;;;;;9.30;4.55;;;;;;;16.79;54.34;100939.00;5259380;28;20025;-69
2022/09/03 06:14:21;;;;;;;8.75;4.90;;;;;;;16.91;54.23;100947.41;5265289;28;20036;-68
2022/09/03 06:16:54;;;;;;;9.07;4.93;;;;;;;16.97;53.65;100942.28;5265301;28;20028;-69
2022/09/03 06:19:26;;;;;;;9.73;4.75;;;;;;;17.08;53.06;100943.72;5261948;28;20516;-69
2022/09/03 06:21:57;;;;;;;11.60;5.00;;;;;;;17.13;53.87;100943.22;5262191;28;20068;-68
2022/09/03 06:24:28;;;;;;;10.13;4.68;;;;;;;17.21;53.69;100938.72;5263128;28;20032;-67
2022/09/03 06:27:00;;;;;;;11.82;4.45;;;;;;;17.32;53.71;100945.47;5269012;28;20068;-69
2022/09/03 06:29:31;;;;;;;10.35;4.25;;;;;;;17.36;53.84;100952.06;5263605;28;20074;-69
2022/09/03 06:32:03;;;;;;;10.75;4.47;;;;;;;17.42;54.19;100946.06;5266880;28;20028;-68
2022/09/03 06:34:34;;;;;;;9.63;5.23;;;;;;;17.56;52.81;100952.47;5267275;28;20032;-68
2022/09/03 06:37:06;;;;;;;8.93;4.70;;;;;;;17.65;53.04;100946.16;5265836;28;20025;-68
2022/09/03 06:39:37;;;;;;;10.05;4.60;;;;;;;17.77;53.22;100956.34;5267377;28;20029;-69
2022/09/03 06:42:08;;;;;;;29.75;6.22;;;;;;;17.86;51.75;100944.72;5263379;28;20021;-68
2022/09/03 06:44:40;;;;;;;9.95;4.93;;;;;;;17.95;51.67;100952.44;5267404;28;20059;-70
2022/09/03 06:47:11;;;;;;;12.48;5.70;;;;;;;18.05;51.33;100956.69;5263058;28;20024;-68
2022/09/03 06:49:43;;;;;;;10.40;5.30;;;;;;;18.11;50.77;100951.53;5265041;28;20032;-70
2022/09/03 06:52:14;;;;;;;11.30;5.40;;;;;;;18.19;50.58;100951.44;5265572;28;20029;-68
2022/09/03 06:54:47;;;;;;;11.88;4.88;;;;;;;18.29;50.64;100953.03;5268515;28;20024;-69
2022/09/03 06:57:18;;;;;;;12.77;5.57;;;;;;;18.39;50.44;100948.31;5264381;28;20051;-69
2022/09/03 06:59:49;;;;;;;10.02;5.00;;;;;;;18.53;50.70;100952.84;5268211;28;20144;-67
2022/09/03 07:02:21;;;;;;;8.70;4.90;;;;;;;18.59;50.44;100945.97;5266126;28;20120;-67
2022/09/03 07:04:53;;;;;;;12.97;5.10;;;;;;;18.73;49.25;100952.34;5265117;28;20385;-69
2022/09/03 07:07:24;;;;;;;9.85;4.80;;;;;;;18.90;49.94;100959.13;5269320;28;20043;-68
2022/09/03 07:09:55;;;;;;;7.75;4.35;;;;;;;19.04;48.97;100960.16;5265151;28;20081;-69
2022/09/03 07:12:26;;;;;;;8.63;4.07;;;;;;;19.11;47.88;100958.44;5269096;28;20040;-67
2022/09/03 07:14:58;;;;;;;10.00;4.50;;;;;;;19.26;48.18;100950.47;5257279;28;20843;-67
2022/09/03 07:17:29;;;;;;;7.68;4.10;;;;;;;19.35;48.25;100954.66;5266876;28;20028;-70
2022/09/03 07:20:00;;;;;;;8.80;4.15;;;;;;;19.52;47.93;100957.94;5271355;28;20036;-69
2022/09/03 07:22:31;;;;;;;8.13;3.80;;;;;;;19.65;48.22;100952.81;5271413;28;20141;-68
2022/09/03 07:25:03;;;;;;;11.55;4.60;;;;;;;19.71;47.49;100954.72;5267719;28;20055;-68
2022/09/03 07:27:34;;;;;;;7.90;3.28;;;;;;;19.71;46.01;100954.72;5266713;28;20033;-68
2022/09/03 07:30:09;;;;;;;5.72;2.38;;;;;;;19.84;46.20;100954.84;5264575;28;20025;-69
2022/09/03 07:32:40;;;;;;;6.80;2.88;;;;;;;19.83;47.29;100957.72;5273170;28;20024;-69
2022/09/03 07:35:12;;;;;;;4.67;2.63;;;;;;;20.03;45.87;100963.22;5260271;28;20021;-68
2022/09/03 07:37:43;;;;;;;6.25;2.10;;;;;;;19.99;46.17;100967.28;5262158;28;20035;-68
2022/09/03 07:40:18;;;;;;;4.85;2.00;;;;;;;19.89;45.45;100968.44;5261427;28;20029;-69
2022/09/03 07:43:03;;;;;;;5.28;2.17;;;;;;;19.88;46.64;100956.13;5260137;28;20059;-69
2022/09/03 07:45:34;;;;;;;4.50;1.80;;;;;;;20.02;46.82;100962.41;5262589;28;20025;-69
2022/09/03 07:48:05;;;;;;;5.60;1.90;;;;;;;20.23;46.71;100958.09;5260776;28;20078;-68
2022/09/03 07:50:39;;;;;;;5.60;1.57;;;;;;;20.32;45.47;100957.78;5262170;28;20124;-69
2022/09/03 07:53:10;;;;;;;5.07;1.77;;;;;;;20.43;45.07;100959.13;5260349;28;20021;-69
2022/09/03 07:55:43;;;;;;;5.70;1.80;;;;;;;20.67;44.69;100968.53;5262302;28;20035;-69
2022/09/03 07:58:14;;;;;;;;;;;;;;;21.24;44.00;100964.81;5273218;22;20128;-69
2022/09/03 08:00:45;;;;;;;3.77;1.20;;;;;;;20.94;43.72;100966.88;5259769;28;20015;-70
2022/09/03 08:03:17;;;;;;;4.37;1.47;;;;;;;21.09;43.72;100966.75;5253271;28;20029;-69
2022/09/03 08:05:49;;;;;;;4.95;1.35;;;;;;;21.23;43.37;100967.66;5241502;28;20028;-69
2022/09/03 08:08:20;;;;;;;4.63;1.33;;;;;;;21.43;43.50;100968.63;5261011;28;20055;-69
2022/09/03 08:10:51;;;;;;;3.07;1.63;;;;;;;21.59;42.65;100962.09;5260829;28;20098;-70
2022/09/03 08:13:23;;;;;;;9.33;1.63;;;;;;;21.68;42.31;100962.78;5255441;28;20029;-69
2022/09/03 08:15:55;;;;;;;2.50;1.30;;;;;;;21.88;42.03;100963.63;5261467;28;20060;-69
2022/09/03 08:18:30;;;;;;;4.13;1.33;;;;;;;22.00;42.09;100967.34;5257658;28;20021;-69
2022/09/03 08:21:07;;;;;;;5.75;1.10;;;;;;;22.13;41.51;100963.91;5255374;28;20028;-69
2022/09/03 08:23:39;;;;;;;3.72;1.08;;;;;;;22.19;41.12;100959.63;5256622;28;20029;-70
2022/09/03 08:26:12;;;;;;;3.55;1.30;;;;;;;22.33;40.56;100969.28;5256485;28;20477;-69
2022/09/03 08:28:43;;;;;;;5.25;1.10;;;;;;;22.53;40.80;100971.97;5257429;28;20382;-70
2022/09/03 08:31:20;;;;;;;4.23;1.40;;;;;;;22.78;40.56;100972.16;5256383;28;20035;-70
2022/09/03 08:33:53;;;;;;;2.80;1.23;;;;;;;22.74;39.66;100973.59;5256080;28;20017;-70
2022/09/03 08:36:30;;;;;;;4.75;1.38;;;;;;;22.89;38.78;100974.19;5255752;28;20029;-70
2022/09/03 08:39:03;;;;;;;3.60;1.10;;;;;;;23.00;39.10;100978.94;5255557;28;20020;-70
2022/09/03 08:42:00;;;;;;;3.15;1.20;;;;;;;23.28;39.30;100972.47;5255701;28;20043;-70
2022/09/03 08:44:46;;;;;;;2.92;1.00;;;;;;;23.40;39.30;100986.00;5254406;28;20024;-70
2022/09/03 08:47:39;;;;;;;2.90;1.10;;;;;;;23.61;38.70;100984.91;5252074;28;20607;-70
2022/09/03 08:50:24;;;;;;;4.38;1.40;;;;;;;23.64;38.62;100977.28;5252541;28;20017;-69
2022/09/03 08:53:07;;;;;;;2.40;1.30;;;;;;;23.78;38.57;100973.53;5251484;28;20039;-70
2022/09/03 08:56:02;;;;;;;5.15;1.30;;;;;;;24.03;38.90;100973.59;5253319;28;20037;-70
2022/09/03 08:58:37;;;;;;;4.25;1.15;;;;;;;23.94;37.65;100966.88;5254836;28;20048;-70
2022/09/03 09:01:10;;;;;;;8.20;1.55;;;;;;;24.09;38.09;100976.44;5254723;28;20245;-70
2022/09/03 09:03:52;;;;;;;;;;;;;;;24.67;37.08;100977.06;5255891;28;20024;-69
2022/09/03 09:06:52;;;;;;;2.03;1.00;;;;;;;24.55;37.56;100976.13;5255358;28;19928;-68
2022/09/03 09:09:29;;;;;;;3.85;1.13;;;;;;;24.31;36.99;100977.72;5254812;28;20527;-69
2022/09/03 09:12:33;;;;;;;4.15;1.30;;;;;;;24.63;37.17;100981.22;5253786;28;20497;-68
2022/09/03 09:15:11;;;;;;;5.68;1.48;;;;;;;24.62;36.63;100984.09;5240425;28;20076;-69
2022/09/03 09:18:08;;;;;;;3.55;1.10;;;;;;;24.79;36.13;100987.03;5254534;28;20154;-69
2022/09/03 09:21:01;;;;;;;5.75;1.30;;;;;;;25.06;36.07;100982.25;5251466;28;20102;-69
2022/09/03 09:23:39;;;;;;;3.72;1.42;;;;;;;24.93;35.47;100986.69;5253544;28;20048;-69
2022/09/03 09:26:14;;;;;;;5.15;1.20;;;;;;;25.07;35.50;100984.69;5255051;28;20540;-69
2022/09/03 09:28:52;;;;;;;2.15;1.05;;;;;;;25.09;35.36;100979.13;5254677;28;20382;-69
2022/09/03 09:31:24;;;;;;;5.07;1.38;;;;;;;25.14;34.97;100980.09;5254651;28;20032;-69
2022/09/03 09:34:03;;;;;;;4.57;1.23;;;;;;;25.34;34.88;100982.56;5254987;28;20511;-69
2022/09/03 09:36:50;;;;;;;4.47;1.42;;;;;;;25.48;34.38;100965.25;5256341;28;20032;-69
2022/09/03 09:39:22;;;;;;;5.75;1.50;;;;;;;25.37;34.33;100970.56;5255678;28;20075;-69
2022/09/03 09:41:59;;;;;;;4.63;1.50;;;;;;;25.48;34.25;100962.56;5254004;28;20056;-69
2022/09/03 09:44:30;;;;;;;2.95;1.20;;;;;;;25.57;35.27;100973.84;5254680;28;20394;-68
2022/09/03 09:47:25;;;;;;;3.33;1.20;;;;;;;26.00;34.23;100969.34;5255554;28;20033;-69
2022/09/03 09:50:01;;;;;;;3.15;1.00;;;;;;;25.85;33.88;100980.50;5253054;28;20036;-69
2022/09/03 09:52:32;;;;;;;3.83;1.50;;;;;;;25.77;33.40;100975.44;5250419;28;20029;-69
2022/09/03 09:55:08;;;;;;;4.60;1.77;;;;;;;26.00;33.45;100978.22;5253707;28;20017;-68
2022/09/03 09:57:39;;;;;;;6.43;1.40;;;;;;;26.04;32.95;100970.53;5255552;28;20040;-68
2022/09/03 10:00:16;;;;;;;6.37;1.63;;;;;;;26.25;33.18;100979.91;5256617;28;20029;-68
2022/09/03 10:02:55;;;;;;;2.97;1.70;;;;;;;26.22;32.46;100975.84;5257761;28;20108;-68
2022/09/03 10:05:30;;;;;;;3.83;1.45;;;;;;;26.27;32.53;100972.44;5258447;28;20560;-68
2022/09/03 10:08:05;;;;;;;2.92;1.10;;;;;;;26.38;32.67;100977.03;5257676;28;20032;-68
2022/09/03 10:10:43;;;;;;;5.38;1.45;;;;;;;26.35;32.83;100974.78;5256376;28;20028;-68
2022/09/03 10:13:22;;;;;;;4.72;1.63;;;;;;;26.48;32.47;100973.78;5258648;28;20021;-69
2022/09/03 10:16:09;;;;;;;5.28;1.42;;;;;;;26.55;32.77;100967.25;5256837;28;20063;-69
2022/09/03 10:18:45;;;;;;;3.53;1.10;;;;;;;26.52;32.59;100959.69;5257046;28;20029;-68
2022/09/03 10:21:28;;;;;;;3.03;1.08;;;;;;;26.88;32.38;100963.97;5257211;28;20040;-68
2022/09/03 10:24:34;;;;;;;3.65;1.30;;;;;;;27.05;32.20;100961.41;5254965;28;20039;-68
2022/09/03 10:27:11;;;;;;;5.10;1.40;;;;;;;26.82;32.04;100959.56;5257924;28;20036;-68
2022/09/03 10:29:43;;;;;;;2.10;1.20;;;;;;;26.91;32.26;100960.00;5257228;28;20120;-68
2022/09/03 10:32:48;;;;;;;4.95;1.55;;;;;;;27.29;32.45;100958.69;5257922;28;20100;-68
2022/09/03 10:35:31;;;;;;;5.30;1.30;;;;;;;27.45;32.15;100963.31;5257135;28;20033;-68
2022/09/03 10:38:16;;;;;;;2.67;1.20;;;;;;;27.44;32.07;100966.25;5256389;28;20104;-68
2022/09/03 10:41:08;;;;;;;4.88;1.60;;;;;;;27.67;31.51;100960.75;5258601;28;20086;-68
2022/09/03 10:43:58;;;;;;;5.43;1.75;;;;;;;27.49;30.77;100969.03;5255705;28;20063;-69
2022/09/03 10:46:45;;;;;;;7.07;1.38;;;;;;;27.61;30.85;100964.41;5257168;28;20501;-68
2022/09/03 10:49:33;;;;;;;2.45;1.10;;;;;;;27.62;30.53;100956.09;5256980;28;20363;-68
2022/09/03 10:52:23;;;;;;;2.85;1.00;;;;;;;28.09;30.77;100953.19;5256882;28;20025;-68
2022/09/03 10:55:11;;;;;;;5.18;1.40;;;;;;;27.89;30.05;100956.34;5254135;28;20504;-68
2022/09/03 10:57:49;;;;;;;5.15;1.67;;;;;;;27.96;31.23;100952.69;5251776;28;20514;-69
2022/09/03 11:00:21;;;;;;;5.35;1.40;;;;;;;27.97;30.65;100951.66;5255467;28;20489;-69
2022/09/03 11:03:17;;;;;;;6.22;1.52;;;;;;;28.23;30.34;100959.09;5255720;28;20044;-68
2022/09/03 11:05:55;;;;;;;3.45;1.50;;;;;;;27.96;30.06;100955.38;5257023;28;20079;-68
2022/09/03 11:08:36;;;;;;;5.43;1.40;;;;;;;28.17;30.14;100957.34;5252900;28;20028;-68
2022/09/03 11:11:15;;;;;;;3.97;1.45;;;;;;;28.39;29.95;100962.88;5255647;28;20037;-68
2022/09/03 11:13:53;;;;;;;3.75;1.30;;;;;;;28.26;30.23;100957.75;5256715;28;20025;-68
2022/09/03 11:16:30;;;;;;;2.88;1.15;;;;;;;28.32;29.85;100960.31;5257146;28;20513;-68
2022/09/03 11:19:16;;;;;;;3.40;1.38;;;;;;;28.49;30.31;100956.81;5257022;28;20029;-68
2022/09/03 11:21:50;;;;;;;2.67;1.10;;;;;;;28.53;29.90;100953.41;5255640;28;20096;-68
2022/09/03 11:24:25;;;;;;;3.25;1.25;;;;;;;28.53;29.60;100953.41;5254963;28;20025;-69
2022/09/03 11:27:06;;;;;;;2.72;1.42;;;;;;;28.53;29.25;100933.72;5255683;28;20517;-69
2022/09/03 11:30:01;;;;;;;6.78;1.33;;;;;;;28.77;29.78;100956.69;5256767;28;20163;-68
2022/09/03 11:32:39;;;;;;;3.75;1.40;;;;;;;28.39;29.64;100954.78;5234425;28;20044;-68
2022/09/03 11:35:34;;;;;;;3.55;1.15;;;;;;;28.57;29.44;100945.63;5253472;28;20029;-68
2022/09/03 11:38:14;;;;;;;4.78;1.30;;;;;;;28.29;29.15;100950.00;5246634;28;20486;-68
2022/09/03 11:41:09;;;;;;;4.35;1.52;;;;;;;28.59;29.48;100940.78;5254937;28;20056;-69
2022/09/03 11:43:43;;;;;;;4.97;1.50;;;;;;;28.57;30.00;100942.94;5256818;28;20532;-69
2022/09/03 11:46:20;;;;;;;2.50;1.05;;;;;;;28.95;29.07;100947.50;5253005;28;20060;-68
2022/09/03 11:48:54;;;;;;;2.90;1.10;;;;;;;28.82;29.31;100945.97;5256997;28;20394;-68
2022/09/03 11:51:25;;;;;;;5.45;1.33;;;;;;;28.79;29.37;100943.78;5253919;28;20175;-68
2022/09/03 11:54:05;;;;;;;3.63;1.30;;;;;;;28.95;29.33;100947.50;5256203;28;20136;-68
2022/09/03 11:56:36;;;;;;;5.28;1.50;;;;;;;28.88;29.15;100952.25;5253570;28;20024;-68
2022/09/03 11:59:16;;;;;;;9.87;1.60;;;;;;;28.88;29.18;100951.44;5254376;28;20721;-69
2022/09/03 12:02:00;;;;;;;6.75;1.73;;;;;;;28.61;28.83;100942.19;5255543;28;20078;-69
2022/09/03 12:05:17;;;;;;;4.78;1.40;;;;;;;29.19;29.59;100950.81;5255451;28;20032;-68
2022/09/03 12:08:27;;;;;;;4.65;1.63;;;;;;;29.42;29.05;100949.72;5200846;28;20053;-69
2022/09/03 12:11:04;;;;;;;5.70;1.40;;;;;;;29.20;28.34;100948.91;5199514;28;20148;-69
2022/09/03 12:14:06;;;;;;;4.22;1.50;;;;;;;29.47;28.50;100951.66;5258753;28;20037;-69
2022/09/03 12:16:59;;;;;;;5.20;1.45;;;;;;;29.40;28.70;100945.63;5255997;28;20390;-68
2022/09/03 12:19:56;;;;;;;4.65;1.50;;;;;;;29.29;29.07;100950.94;5254191;28;20025;-68